sensor_id;sensor_type;location;lat;lon;timestamp;temperature;humidity
8892;DHT22;4482;54.332;10.118;2023-09-08T00:01:51;18.60;99.90
8892;DHT22;4482;54.332;10.118;2023-09-08T00:04:17;18.60;99.90
8892;DHT22;4482;54.332;10.118;2023-09-08T00:06:46;18.60;99.90
8892;DHT22;4482;54.332;10.118;2023-09-08T00:09:14;18.50;99.90
8892;DHT22;4482;54.332;10.118;2023-09-08T00:11:40;18.50;99.90
8892;DHT22;4482;54.332;10.118;2023-09-08T00:14:07;18.50;99.90
8892;DHT22;4482;54.332;10.118;2023-09-08T00:16:34;18.50;99.90
8892;DHT22;4482;54.332;10.118;2023-09-08T00:19:00;18.50;99.90
8892;DHT22;4482;54.332;10.118;2023-09-08T00:21:27;18.40;99.90
8892;DHT22;4482;54.332;10.118;2023-09-08T00:23:54;18.50;99.90
8892;DHT22;4482;54.332;10.118;2023-09-08T00:26:23;18.40;99.90
8892;DHT22;4482;54.332;10.118;2023-09-08T00:28:49;18.40;99.90
8892;DHT22;4482;54.332;10.118;2023-09-08T00:31:16;18.40;99.90
8892;DHT22;4482;54.332;10.118;2023-09-08T00:33:43;18.40;99.90
8892;DHT22;4482;54.332;10.118;2023-09-08T00:36:09;18.40;99.90
8892;DHT22;4482;54.332;10.118;2023-09-08T00:38:36;18.40;99.90
8892;DHT22;4482;54.332;10.118;2023-09-08T00:41:03;18.30;99.90
8892;DHT22;4482;54.332;10.118;2023-09-08T00:43:31;18.30;99.90
8892;DHT22;4482;54.332;10.118;2023-09-08T00:45:58;18.40;99.90
8892;DHT22;4482;54.332;10.118;2023-09-08T00:48:27;18.30;99.90
8892;DHT22;4482;54.332;10.118;2023-09-08T00:50:54;18.40;99.90
8892;DHT22;4482;54.332;10.118;2023-09-08T00:53:21;18.30;99.90
8892;DHT22;4482;54.332;10.118;2023-09-08T00:55:48;18.30;99.90
8892;DHT22;4482;54.332;10.118;2023-09-08T00:58:14;18.30;99.90
8892;DHT22;4482;54.332;10.118;2023-09-08T01:00:42;18.30;99.90
8892;DHT22;4482;54.332;10.118;2023-09-08T01:03:10;18.30;99.90
8892;DHT22;4482;54.332;10.118;2023-09-08T01:05:37;18.30;99.90
8892;DHT22;4482;54.332;10.118;2023-09-08T01:08:04;18.30;99.90
8892;DHT22;4482;54.332;10.118;2023-09-08T01:10:30;18.30;99.90
8892;DHT22;4482;54.332;10.118;2023-09-08T01:12:57;18.30;99.90
8892;DHT22;4482;54.332;10.118;2023-09-08T01:15:24;18.30;99.90
8892;DHT22;4482;54.332;10.118;2023-09-08T01:17:52;18.30;99.90
8892;DHT22;4482;54.332;10.118;2023-09-08T01:20:20;18.30;99.90
8892;DHT22;4482;54.332;10.118;2023-09-08T01:22:55;18.30;99.90
8892;DHT22;4482;54.332;10.118;2023-09-08T01:25:28;18.20;99.90
8892;DHT22;4482;54.332;10.118;2023-09-08T01:27:57;18.20;99.90
8892;DHT22;4482;54.332;10.118;2023-09-08T01:30:25;18.20;99.90
8892;DHT22;4482;54.332;10.118;2023-09-08T01:32:52;18.10;99.90
8892;DHT22;4482;54.332;10.118;2023-09-08T01:35:20;18.10;99.90
8892;DHT22;4482;54.332;10.118;2023-09-08T01:37:47;18.10;99.90
8892;DHT22;4482;54.332;10.118;2023-09-08T01:40:15;18.10;99.90
8892;DHT22;4482;54.332;10.118;2023-09-08T01:42:43;18.00;99.90
8892;DHT22;4482;54.332;10.118;2023-09-08T01:45:09;18.00;99.90
8892;DHT22;4482;54.332;10.118;2023-09-08T01:47:36;18.00;99.90
8892;DHT22;4482;54.332;10.118;2023-09-08T01:50:04;17.90;99.90
8892;DHT22;4482;54.332;10.118;2023-09-08T01:52:30;17.90;99.90
8892;DHT22;4482;54.332;10.118;2023-09-08T01:54:57;17.90;99.90
8892;DHT22;4482;54.332;10.118;2023-09-08T01:57:24;17.90;99.90
8892;DHT22;4482;54.332;10.118;2023-09-08T01:59:51;17.90;99.90
8892;DHT22;4482;54.332;10.118;2023-09-08T02:02:18;17.90;99.90
8892;DHT22;4482;54.332;10.118;2023-09-08T02:04:45;17.90;99.90
8892;DHT22;4482;54.332;10.118;2023-09-08T02:07:12;17.80;99.90
8892;DHT22;4482;54.332;10.118;2023-09-08T02:09:38;17.80;99.90
8892;DHT22;4482;54.332;10.118;2023-09-08T02:12:05;17.80;99.90
8892;DHT22;4482;54.332;10.118;2023-09-08T02:14:32;17.80;99.90
8892;DHT22;4482;54.332;10.118;2023-09-08T02:17:00;17.80;99.90
8892;DHT22;4482;54.332;10.118;2023-09-08T02:19:27;17.80;99.90
8892;DHT22;4482;54.332;10.118;2023-09-08T02:21:54;17.80;99.90
8892;DHT22;4482;54.332;10.118;2023-09-08T02:24:21;17.70;99.90
8892;DHT22;4482;54.332;10.118;2023-09-08T02:26:47;17.70;99.90
8892;DHT22;4482;54.332;10.118;2023-09-08T02:29:14;17.70;99.90
8892;DHT22;4482;54.332;10.118;2023-09-08T02:31:41;17.70;99.90
8892;DHT22;4482;54.332;10.118;2023-09-08T02:34:09;17.70;99.90
8892;DHT22;4482;54.332;10.118;2023-09-08T02:36:36;17.70;99.90
8892;DHT22;4482;54.332;10.118;2023-09-08T02:39:03;17.70;99.90
8892;DHT22;4482;54.332;10.118;2023-09-08T02:41:30;17.60;99.90
8892;DHT22;4482;54.332;10.118;2023-09-08T02:43:57;17.60;99.90
8892;DHT22;4482;54.332;10.118;2023-09-08T02:46:23;17.60;99.90
8892;DHT22;4482;54.332;10.118;2023-09-08T02:48:50;17.60;99.90
8892;DHT22;4482;54.332;10.118;2023-09-08T02:51:19;17.60;99.90
8892;DHT22;4482;54.332;10.118;2023-09-08T02:53:46;17.60;99.90
8892;DHT22;4482;54.332;10.118;2023-09-08T02:56:12;17.60;99.90
8892;DHT22;4482;54.332;10.118;2023-09-08T02:58:39;17.60;99.90
8892;DHT22;4482;54.332;10.118;2023-09-08T03:01:09;17.60;99.90
8892;DHT22;4482;54.332;10.118;2023-09-08T03:03:35;17.50;99.90
8892;DHT22;4482;54.332;10.118;2023-09-08T03:06:02;17.50;99.90
8892;DHT22;4482;54.332;10.118;2023-09-08T03:08:30;17.50;99.90
8892;DHT22;4482;54.332;10.118;2023-09-08T03:10:58;17.50;99.90
8892;DHT22;4482;54.332;10.118;2023-09-08T03:13:25;17.50;99.90
8892;DHT22;4482;54.332;10.118;2023-09-08T03:15:51;17.50;99.90
8892;DHT22;4482;54.332;10.118;2023-09-08T03:18:18;17.50;99.90
8892;DHT22;4482;54.332;10.118;2023-09-08T03:20:47;17.40;99.90
8892;DHT22;4482;54.332;10.118;2023-09-08T03:23:14;17.50;99.90
8892;DHT22;4482;54.332;10.118;2023-09-08T03:25:42;17.50;99.90
8892;DHT22;4482;54.332;10.118;2023-09-08T03:28:08;17.50;99.90
8892;DHT22;4482;54.332;10.118;2023-09-08T03:30:35;17.50;99.90
8892;DHT22;4482;54.332;10.118;2023-09-08T03:33:02;17.50;99.90
8892;DHT22;4482;54.332;10.118;2023-09-08T03:35:28;17.50;99.90
8892;DHT22;4482;54.332;10.118;2023-09-08T03:37:55;17.50;99.90
8892;DHT22;4482;54.332;10.118;2023-09-08T03:40:22;17.50;99.90
8892;DHT22;4482;54.332;10.118;2023-09-08T03:42:50;17.50;99.90
8892;DHT22;4482;54.332;10.118;2023-09-08T03:45:16;17.50;99.90
8892;DHT22;4482;54.332;10.118;2023-09-08T03:47:43;17.50;99.90
8892;DHT22;4482;54.332;10.118;2023-09-08T03:50:10;17.50;99.90
8892;DHT22;4482;54.332;10.118;2023-09-08T03:52:36;17.50;99.90
8892;DHT22;4482;54.332;10.118;2023-09-08T03:55:03;17.50;99.90
8892;DHT22;4482;54.332;10.118;2023-09-08T03:57:31;17.50;99.90
8892;DHT22;4482;54.332;10.118;2023-09-08T03:59:59;17.60;99.90
8892;DHT22;4482;54.332;10.118;2023-09-08T04:02:25;17.60;99.90
8892;DHT22;4482;54.332;10.118;2023-09-08T04:04:52;17.50;99.90
8892;DHT22;4482;54.332;10.118;2023-09-08T04:07:19;17.60;99.90
8892;DHT22;4482;54.332;10.118;2023-09-08T04:09:45;17.50;99.90
8892;DHT22;4482;54.332;10.118;2023-09-08T04:12:12;17.50;99.90
8892;DHT22;4482;54.332;10.118;2023-09-08T04:14:38;17.60;99.90
8892;DHT22;4482;54.332;10.118;2023-09-08T04:17:06;17.60;99.90
8892;DHT22;4482;54.332;10.118;2023-09-08T04:19:33;17.50;99.90
8892;DHT22;4482;54.332;10.118;2023-09-08T04:22:00;17.50;99.90
8892;DHT22;4482;54.332;10.118;2023-09-08T04:24:26;17.50;99.90
8892;DHT22;4482;54.332;10.118;2023-09-08T04:26:53;17.40;99.90
8892;DHT22;4482;54.332;10.118;2023-09-08T04:29:20;17.40;99.90
8892;DHT22;4482;54.332;10.118;2023-09-08T04:31:46;17.40;99.90
8892;DHT22;4482;54.332;10.118;2023-09-08T04:34:15;17.40;99.90
8892;DHT22;4482;54.332;10.118;2023-09-08T04:36:41;17.30;99.90
8892;DHT22;4482;54.332;10.118;2023-09-08T04:39:08;17.30;99.90
8892;DHT22;4482;54.332;10.118;2023-09-08T04:41:36;17.30;99.90
8892;DHT22;4482;54.332;10.118;2023-09-08T04:44:03;17.30;99.90
8892;DHT22;4482;54.332;10.118;2023-09-08T04:46:30;17.30;99.90
8892;DHT22;4482;54.332;10.118;2023-09-08T04:48:56;17.30;99.90
8892;DHT22;4482;54.332;10.118;2023-09-08T04:51:25;17.30;99.90
8892;DHT22;4482;54.332;10.118;2023-09-08T04:53:51;17.30;99.90
8892;DHT22;4482;54.332;10.118;2023-09-08T04:56:18;17.20;99.90
8892;DHT22;4482;54.332;10.118;2023-09-08T04:58:44;17.30;99.90
8892;DHT22;4482;54.332;10.118;2023-09-08T05:01:11;17.20;99.90
8892;DHT22;4482;54.332;10.118;2023-09-08T05:03:38;17.30;99.90
8892;DHT22;4482;54.332;10.118;2023-09-08T05:06:04;17.30;99.90
8892;DHT22;4482;54.332;10.118;2023-09-08T05:08:32;17.30;99.90
8892;DHT22;4482;54.332;10.118;2023-09-08T05:10:59;17.40;99.90
8892;DHT22;4482;54.332;10.118;2023-09-08T05:13:26;17.40;99.90
8892;DHT22;4482;54.332;10.118;2023-09-08T05:15:53;17.40;99.90
8892;DHT22;4482;54.332;10.118;2023-09-08T05:18:25;17.50;99.90
8892;DHT22;4482;54.332;10.118;2023-09-08T05:20:52;17.50;99.90
8892;DHT22;4482;54.332;10.118;2023-09-08T05:23:19;17.60;99.90
8892;DHT22;4482;54.332;10.118;2023-09-08T05:25:47;17.60;99.90
8892;DHT22;4482;54.332;10.118;2023-09-08T05:28:13;17.70;99.90
8892;DHT22;4482;54.332;10.118;2023-09-08T05:30:40;17.70;99.90
8892;DHT22;4482;54.332;10.118;2023-09-08T05:33:07;17.80;99.90
8892;DHT22;4482;54.332;10.118;2023-09-08T05:35:34;17.90;99.90
8892;DHT22;4482;54.332;10.118;2023-09-08T05:38:01;17.90;99.90
8892;DHT22;4482;54.332;10.118;2023-09-08T05:40:28;18.00;99.90
8892;DHT22;4482;54.332;10.118;2023-09-08T05:42:56;18.10;99.90
8892;DHT22;4482;54.332;10.118;2023-09-08T05:45:22;18.10;99.90
8892;DHT22;4482;54.332;10.118;2023-09-08T05:47:51;18.20;99.90
8892;DHT22;4482;54.332;10.118;2023-09-08T05:50:18;18.30;99.90
8892;DHT22;4482;54.332;10.118;2023-09-08T05:52:44;18.30;99.90
8892;DHT22;4482;54.332;10.118;2023-09-08T05:55:11;18.40;99.90
8892;DHT22;4482;54.332;10.118;2023-09-08T05:57:37;18.40;99.90
8892;DHT22;4482;54.332;10.118;2023-09-08T06:00:06;18.50;99.90
8892;DHT22;4482;54.332;10.118;2023-09-08T06:02:33;18.60;99.90
8892;DHT22;4482;54.332;10.118;2023-09-08T06:05:00;18.70;99.90
8892;DHT22;4482;54.332;10.118;2023-09-08T06:07:27;18.70;99.90
8892;DHT22;4482;54.332;10.118;2023-09-08T06:09:53;18.80;99.90
8892;DHT22;4482;54.332;10.118;2023-09-08T06:12:20;18.90;99.90
8892;DHT22;4482;54.332;10.118;2023-09-08T06:14:46;19.00;99.90
8892;DHT22;4482;54.332;10.118;2023-09-08T06:17:14;19.10;99.90
8892;DHT22;4482;54.332;10.118;2023-09-08T06:19:41;19.20;99.90
8892;DHT22;4482;54.332;10.118;2023-09-08T06:22:08;19.40;99.90
8892;DHT22;4482;54.332;10.118;2023-09-08T06:24:34;19.40;99.90
8892;DHT22;4482;54.332;10.118;2023-09-08T06:27:01;19.50;99.90
8892;DHT22;4482;54.332;10.118;2023-09-08T06:29:27;19.60;99.90
8892;DHT22;4482;54.332;10.118;2023-09-08T06:31:54;19.60;99.90
8892;DHT22;4482;54.332;10.118;2023-09-08T06:34:22;19.70;99.90
8892;DHT22;4482;54.332;10.118;2023-09-08T06:36:49;19.80;99.90
8892;DHT22;4482;54.332;10.118;2023-09-08T06:39:15;19.90;99.90
8892;DHT22;4482;54.332;10.118;2023-09-08T06:41:42;19.90;99.90
8892;DHT22;4482;54.332;10.118;2023-09-08T06:44:09;20.00;99.90
8892;DHT22;4482;54.332;10.118;2023-09-08T06:46:35;20.10;99.90
8892;DHT22;4482;54.332;10.118;2023-09-08T06:49:02;20.20;99.90
8892;DHT22;4482;54.332;10.118;2023-09-08T06:51:30;20.30;99.90
8892;DHT22;4482;54.332;10.118;2023-09-08T06:53:57;20.30;99.90
8892;DHT22;4482;54.332;10.118;2023-09-08T06:56:25;20.50;99.90
8892;DHT22;4482;54.332;10.118;2023-09-08T06:58:52;20.60;99.90
8892;DHT22;4482;54.332;10.118;2023-09-08T07:01:18;20.80;99.90
8892;DHT22;4482;54.332;10.118;2023-09-08T07:03:45;20.90;99.90
8892;DHT22;4482;54.332;10.118;2023-09-08T07:06:11;21.00;99.90
8892;DHT22;4482;54.332;10.118;2023-09-08T07:08:39;21.10;99.90
8892;DHT22;4482;54.332;10.118;2023-09-08T07:11:06;21.30;99.90
8892;DHT22;4482;54.332;10.118;2023-09-08T07:13:33;21.50;99.90
8892;DHT22;4482;54.332;10.118;2023-09-08T07:15:59;21.70;99.90
8892;DHT22;4482;54.332;10.118;2023-09-08T07:18:26;21.80;99.90
8892;DHT22;4482;54.332;10.118;2023-09-08T07:20:52;21.90;99.90
8892;DHT22;4482;54.332;10.118;2023-09-08T07:23:19;22.10;99.90
8892;DHT22;4482;54.332;10.118;2023-09-08T07:25:47;22.40;99.90
8892;DHT22;4482;54.332;10.118;2023-09-08T07:28:14;22.50;99.90
8892;DHT22;4482;54.332;10.118;2023-09-08T07:30:41;22.60;99.90
8892;DHT22;4482;54.332;10.118;2023-09-08T07:33:07;22.80;99.90
8892;DHT22;4482;54.332;10.118;2023-09-08T07:35:36;23.00;99.90
8892;DHT22;4482;54.332;10.118;2023-09-08T07:38:02;23.20;99.90
8892;DHT22;4482;54.332;10.118;2023-09-08T07:40:29;23.70;99.90
8892;DHT22;4482;54.332;10.118;2023-09-08T07:42:57;24.20;99.90
8892;DHT22;4482;54.332;10.118;2023-09-08T07:45:24;24.60;99.90
8892;DHT22;4482;54.332;10.118;2023-09-08T07:47:50;25.10;99.90
8892;DHT22;4482;54.332;10.118;2023-09-08T07:50:18;25.40;99.90
8892;DHT22;4482;54.332;10.118;2023-09-08T07:52:45;25.80;99.90
8892;DHT22;4482;54.332;10.118;2023-09-08T07:55:12;26.10;99.90
8892;DHT22;4482;54.332;10.118;2023-09-08T07:57:39;26.30;99.90
8892;DHT22;4482;54.332;10.118;2023-09-08T08:00:07;26.70;99.90
8892;DHT22;4482;54.332;10.118;2023-09-08T08:02:36;27.20;99.90
8892;DHT22;4482;54.332;10.118;2023-09-08T08:05:02;27.50;99.90
8892;DHT22;4482;54.332;10.118;2023-09-08T08:07:29;28.10;99.90
8892;DHT22;4482;54.332;10.118;2023-09-08T08:09:56;28.50;99.90
8892;DHT22;4482;54.332;10.118;2023-09-08T08:12:23;28.80;99.90
8892;DHT22;4482;54.332;10.118;2023-09-08T08:14:50;29.10;99.90
8892;DHT22;4482;54.332;10.118;2023-09-08T08:17:17;29.20;99.90
8892;DHT22;4482;54.332;10.118;2023-09-08T08:19:45;29.50;99.90
8892;DHT22;4482;54.332;10.118;2023-09-08T08:22:12;29.80;99.90
8892;DHT22;4482;54.332;10.118;2023-09-08T08:24:39;30.60;99.90
8892;DHT22;4482;54.332;10.118;2023-09-08T08:27:05;31.20;98.60
8892;DHT22;4482;54.332;10.118;2023-09-08T08:29:32;31.50;97.50
8892;DHT22;4482;54.332;10.118;2023-09-08T08:31:58;32.40;96.40
8892;DHT22;4482;54.332;10.118;2023-09-08T08:34:26;32.90;94.70
8892;DHT22;4482;54.332;10.118;2023-09-08T08:36:53;32.90;94.00
8892;DHT22;4482;54.332;10.118;2023-09-08T08:39:20;32.70;93.40
8892;DHT22;4482;54.332;10.118;2023-09-08T08:41:46;33.10;92.80
8892;DHT22;4482;54.332;10.118;2023-09-08T08:44:13;33.60;91.90
8892;DHT22;4482;54.332;10.118;2023-09-08T08:46:41;34.10;91.10
8892;DHT22;4482;54.332;10.118;2023-09-08T08:49:09;34.50;89.70
8892;DHT22;4482;54.332;10.118;2023-09-08T08:51:38;34.30;89.40
8892;DHT22;4482;54.332;10.118;2023-09-08T08:54:05;34.60;87.60
8892;DHT22;4482;54.332;10.118;2023-09-08T08:56:32;34.80;85.30
8892;DHT22;4482;54.332;10.118;2023-09-08T08:58:59;33.90;86.40
8892;DHT22;4482;54.332;10.118;2023-09-08T09:01:27;33.70;87.80
8892;DHT22;4482;54.332;10.118;2023-09-08T09:03:54;33.80;88.50
8892;DHT22;4482;54.332;10.118;2023-09-08T09:06:21;34.10;87.70
8892;DHT22;4482;54.332;10.118;2023-09-08T09:08:50;34.30;87.40
8892;DHT22;4482;54.332;10.118;2023-09-08T09:11:17;34.20;87.40
8892;DHT22;4482;54.332;10.118;2023-09-08T09:13:44;34.00;86.20
8892;DHT22;4482;54.332;10.118;2023-09-08T09:16:10;33.90;85.90
8892;DHT22;4482;54.332;10.118;2023-09-08T09:18:52;34.10;85.10
8892;DHT22;4482;54.332;10.118;2023-09-08T09:21:19;34.10;85.30
8892;DHT22;4482;54.332;10.118;2023-09-08T09:23:46;34.10;86.30
8892;DHT22;4482;54.332;10.118;2023-09-08T09:26:22;34.40;83.00
8892;DHT22;4482;54.332;10.118;2023-09-08T09:28:49;34.30;84.10
8892;DHT22;4482;54.332;10.118;2023-09-08T09:31:17;35.00;82.10
8892;DHT22;4482;54.332;10.118;2023-09-08T09:33:44;35.10;80.60
8892;DHT22;4482;54.332;10.118;2023-09-08T09:36:12;34.40;82.00
8892;DHT22;4482;54.332;10.118;2023-09-08T09:38:46;34.00;82.50
8892;DHT22;4482;54.332;10.118;2023-09-08T09:41:14;33.80;83.60
8892;DHT22;4482;54.332;10.118;2023-09-08T09:43:42;34.40;82.70
8892;DHT22;4482;54.332;10.118;2023-09-08T09:46:09;34.30;80.70
8892;DHT22;4482;54.332;10.118;2023-09-08T09:48:36;34.10;82.40
8892;DHT22;4482;54.332;10.118;2023-09-08T09:51:14;34.60;81.40
8892;DHT22;4482;54.332;10.118;2023-09-08T09:53:41;34.80;80.30
8892;DHT22;4482;54.332;10.118;2023-09-08T09:56:09;35.50;79.00
8892;DHT22;4482;54.332;10.118;2023-09-08T09:58:37;35.40;78.40
8892;DHT22;4482;54.332;10.118;2023-09-08T10:01:04;35.60;77.40
8892;DHT22;4482;54.332;10.118;2023-09-08T10:03:32;36.00;77.40
8892;DHT22;4482;54.332;10.118;2023-09-08T10:05:59;36.90;75.10
8892;DHT22;4482;54.332;10.118;2023-09-08T10:08:25;37.50;73.20
8892;DHT22;4482;54.332;10.118;2023-09-08T10:10:53;37.60;71.40
8892;DHT22;4482;54.332;10.118;2023-09-08T10:13:23;37.80;69.20
8892;DHT22;4482;54.332;10.118;2023-09-08T10:15:52;37.80;69.20
8892;DHT22;4482;54.332;10.118;2023-09-08T10:18:18;37.80;65.40
8892;DHT22;4482;54.332;10.118;2023-09-08T10:20:46;37.60;64.90
8892;DHT22;4482;54.332;10.118;2023-09-08T10:23:15;37.60;64.60
8892;DHT22;4482;54.332;10.118;2023-09-08T10:25:47;37.30;61.60
8892;DHT22;4482;54.332;10.118;2023-09-08T10:28:19;37.00;62.30
8892;DHT22;4482;54.332;10.118;2023-09-08T10:30:47;37.60;60.40
8892;DHT22;4482;54.332;10.118;2023-09-08T10:33:16;37.90;58.50
8892;DHT22;4482;54.332;10.118;2023-09-08T10:35:43;38.30;58.90
8892;DHT22;4482;54.332;10.118;2023-09-08T10:38:22;38.50;55.30
8892;DHT22;4482;54.332;10.118;2023-09-08T10:40:49;38.50;56.50
8892;DHT22;4482;54.332;10.118;2023-09-08T10:43:17;38.60;57.40
8892;DHT22;4482;54.332;10.118;2023-09-08T10:45:45;38.70;57.30
8892;DHT22;4482;54.332;10.118;2023-09-08T10:48:11;38.90;56.40
8892;DHT22;4482;54.332;10.118;2023-09-08T10:50:41;39.10;54.10
8892;DHT22;4482;54.332;10.118;2023-09-08T10:53:09;39.10;53.90
8892;DHT22;4482;54.332;10.118;2023-09-08T10:55:39;38.80;52.40
8892;DHT22;4482;54.332;10.118;2023-09-08T10:58:08;38.50;53.40
8892;DHT22;4482;54.332;10.118;2023-09-08T11:00:45;38.40;51.50
8892;DHT22;4482;54.332;10.118;2023-09-08T11:03:12;36.30;53.60
8892;DHT22;4482;54.332;10.118;2023-09-08T11:05:40;33.70;56.20
8892;DHT22;4482;54.332;10.118;2023-09-08T11:08:07;31.60;61.20
8892;DHT22;4482;54.332;10.118;2023-09-08T11:10:34;30.00;68.20
8892;DHT22;4482;54.332;10.118;2023-09-08T11:13:04;29.10;75.30
8892;DHT22;4482;54.332;10.118;2023-09-08T11:15:31;28.30;84.00
8892;DHT22;4482;54.332;10.118;2023-09-08T11:18:02;27.70;86.60
8892;DHT22;4482;54.332;10.118;2023-09-08T11:20:30;27.40;88.20
8892;DHT22;4482;54.332;10.118;2023-09-08T11:23:01;27.30;89.40
8892;DHT22;4482;54.332;10.118;2023-09-08T11:25:29;27.10;90.80
8892;DHT22;4482;54.332;10.118;2023-09-08T11:28:01;27.00;92.10
8892;DHT22;4482;54.332;10.118;2023-09-08T11:30:28;26.90;92.50
8892;DHT22;4482;54.332;10.118;2023-09-08T11:32:55;26.70;93.90
8892;DHT22;4482;54.332;10.118;2023-09-08T11:35:26;26.70;94.30
8892;DHT22;4482;54.332;10.118;2023-09-08T11:37:53;26.70;95.80
8892;DHT22;4482;54.332;10.118;2023-09-08T11:40:27;26.70;96.50
8892;DHT22;4482;54.332;10.118;2023-09-08T11:42:54;26.70;97.00
8892;DHT22;4482;54.332;10.118;2023-09-08T11:45:20;26.60;97.80
8892;DHT22;4482;54.332;10.118;2023-09-08T11:47:50;26.60;98.30
8892;DHT22;4482;54.332;10.118;2023-09-08T11:50:17;26.60;99.00
8892;DHT22;4482;54.332;10.118;2023-09-08T11:52:45;26.60;99.20
8892;DHT22;4482;54.332;10.118;2023-09-08T11:55:12;26.50;99.90
8892;DHT22;4482;54.332;10.118;2023-09-08T11:57:40;26.40;99.90
8892;DHT22;4482;54.332;10.118;2023-09-08T12:00:08;26.40;99.90
8892;DHT22;4482;54.332;10.118;2023-09-08T12:02:39;26.40;99.90
8892;DHT22;4482;54.332;10.118;2023-09-08T12:05:10;26.40;99.90
8892;DHT22;4482;54.332;10.118;2023-09-08T12:07:37;26.40;99.90
8892;DHT22;4482;54.332;10.118;2023-09-08T12:10:06;26.50;99.90
8892;DHT22;4482;54.332;10.118;2023-09-08T12:12:35;26.50;99.90
8892;DHT22;4482;54.332;10.118;2023-09-08T12:15:09;26.50;99.90
8892;DHT22;4482;54.332;10.118;2023-09-08T12:17:45;26.60;99.90
8892;DHT22;4482;54.332;10.118;2023-09-08T12:20:13;26.60;99.90
8892;DHT22;4482;54.332;10.118;2023-09-08T12:22:46;26.50;99.90
8892;DHT22;4482;54.332;10.118;2023-09-08T12:25:13;26.50;99.90
8892;DHT22;4482;54.332;10.118;2023-09-08T12:27:41;26.50;99.90
8892;DHT22;4482;54.332;10.118;2023-09-08T12:30:15;26.60;99.90
8892;DHT22;4482;54.332;10.118;2023-09-08T12:32:42;26.50;99.90
8892;DHT22;4482;54.332;10.118;2023-09-08T12:35:11;26.60;99.90
8892;DHT22;4482;54.332;10.118;2023-09-08T12:37:38;26.50;99.90
8892;DHT22;4482;54.332;10.118;2023-09-08T12:40:05;26.60;99.90
8892;DHT22;4482;54.332;10.118;2023-09-08T12:42:32;26.70;99.90
8892;DHT22;4482;54.332;10.118;2023-09-08T12:44:58;26.70;99.90
8892;DHT22;4482;54.332;10.118;2023-09-08T12:47:27;26.60;99.90
8892;DHT22;4482;54.332;10.118;2023-09-08T12:49:54;26.70;99.90
8892;DHT22;4482;54.332;10.118;2023-09-08T12:52:21;26.80;99.90
8892;DHT22;4482;54.332;10.118;2023-09-08T12:54:48;26.90;99.90
8892;DHT22;4482;54.332;10.118;2023-09-08T12:57:15;26.90;99.90
8892;DHT22;4482;54.332;10.118;2023-09-08T12:59:41;26.90;99.90
8892;DHT22;4482;54.332;10.118;2023-09-08T13:02:08;26.80;99.90
8892;DHT22;4482;54.332;10.118;2023-09-08T13:04:39;26.80;99.90
8892;DHT22;4482;54.332;10.118;2023-09-08T13:07:05;26.80;99.90
8892;DHT22;4482;54.332;10.118;2023-09-08T13:09:32;26.80;99.90
8892;DHT22;4482;54.332;10.118;2023-09-08T13:11:59;26.80;99.90
8892;DHT22;4482;54.332;10.118;2023-09-08T13:14:25;26.70;99.90
8892;DHT22;4482;54.332;10.118;2023-09-08T13:16:52;26.80;99.90
8892;DHT22;4482;54.332;10.118;2023-09-08T13:19:19;26.70;99.90
8892;DHT22;4482;54.332;10.118;2023-09-08T13:21:47;26.80;99.90
8892;DHT22;4482;54.332;10.118;2023-09-08T13:24:13;26.90;99.90
8892;DHT22;4482;54.332;10.118;2023-09-08T13:26:40;26.80;99.90
8892;DHT22;4482;54.332;10.118;2023-09-08T13:29:07;26.90;99.90
8892;DHT22;4482;54.332;10.118;2023-09-08T13:31:33;27.00;99.90
8892;DHT22;4482;54.332;10.118;2023-09-08T13:34:00;27.10;99.50
8892;DHT22;4482;54.332;10.118;2023-09-08T13:36:26;27.00;98.80
8892;DHT22;4482;54.332;10.118;2023-09-08T13:38:54;26.90;98.90
8892;DHT22;4482;54.332;10.118;2023-09-08T13:41:21;26.80;98.90
8892;DHT22;4482;54.332;10.118;2023-09-08T13:43:48;26.70;98.50
8892;DHT22;4482;54.332;10.118;2023-09-08T13:46:14;26.70;98.80
8892;DHT22;4482;54.332;10.118;2023-09-08T13:48:41;26.70;99.20
8892;DHT22;4482;54.332;10.118;2023-09-08T13:51:07;26.60;98.30
8892;DHT22;4482;54.332;10.118;2023-09-08T13:53:34;26.70;98.40
8892;DHT22;4482;54.332;10.118;2023-09-08T13:56:03;26.60;98.30
8892;DHT22;4482;54.332;10.118;2023-09-08T13:58:30;26.60;98.00
8892;DHT22;4482;54.332;10.118;2023-09-08T14:00:57;26.60;97.90
8892;DHT22;4482;54.332;10.118;2023-09-08T14:03:23;26.60;97.50
8892;DHT22;4482;54.332;10.118;2023-09-08T14:05:50;26.70;97.50
8892;DHT22;4482;54.332;10.118;2023-09-08T14:08:17;26.70;97.30
8892;DHT22;4482;54.332;10.118;2023-09-08T14:10:43;26.90;96.70
8892;DHT22;4482;54.332;10.118;2023-09-08T14:13:11;27.00;96.60
8892;DHT22;4482;54.332;10.118;2023-09-08T14:15:38;26.90;96.60
8892;DHT22;4482;54.332;10.118;2023-09-08T14:18:05;26.90;96.40
8892;DHT22;4482;54.332;10.118;2023-09-08T14:20:31;26.80;95.80
8892;DHT22;4482;54.332;10.118;2023-09-08T14:22:58;26.90;95.70
8892;DHT22;4482;54.332;10.118;2023-09-08T14:25:24;26.90;95.50
8892;DHT22;4482;54.332;10.118;2023-09-08T14:27:51;26.80;95.70
8892;DHT22;4482;54.332;10.118;2023-09-08T14:30:19;26.70;96.00
8892;DHT22;4482;54.332;10.118;2023-09-08T14:32:46;26.70;96.30
8892;DHT22;4482;54.332;10.118;2023-09-08T14:35:12;26.60;96.00
8892;DHT22;4482;54.332;10.118;2023-09-08T14:37:40;26.60;95.30
8892;DHT22;4482;54.332;10.118;2023-09-08T14:40:07;26.70;95.60
8892;DHT22;4482;54.332;10.118;2023-09-08T14:42:33;26.70;96.10
8892;DHT22;4482;54.332;10.118;2023-09-08T14:45:00;26.60;96.70
8892;DHT22;4482;54.332;10.118;2023-09-08T14:47:29;26.60;96.70
8892;DHT22;4482;54.332;10.118;2023-09-08T14:49:55;26.50;97.20
8892;DHT22;4482;54.332;10.118;2023-09-08T14:52:22;26.40;97.40
8892;DHT22;4482;54.332;10.118;2023-09-08T14:54:49;26.40;97.30
8892;DHT22;4482;54.332;10.118;2023-09-08T14:57:15;26.40;97.00
8892;DHT22;4482;54.332;10.118;2023-09-08T14:59:43;26.40;97.10
8892;DHT22;4482;54.332;10.118;2023-09-08T15:02:10;26.40;96.40
8892;DHT22;4482;54.332;10.118;2023-09-08T15:04:38;26.40;97.20
8892;DHT22;4482;54.332;10.118;2023-09-08T15:07:04;26.40;94.90
8892;DHT22;4482;54.332;10.118;2023-09-08T15:09:31;26.40;94.10
8892;DHT22;4482;54.332;10.118;2023-09-08T15:11:58;26.50;94.50
8892;DHT22;4482;54.332;10.118;2023-09-08T15:14:25;26.50;94.80
8892;DHT22;4482;54.332;10.118;2023-09-08T15:16:52;26.50;94.90
8892;DHT22;4482;54.332;10.118;2023-09-08T15:19:18;26.50;94.90
8892;DHT22;4482;54.332;10.118;2023-09-08T15:21:46;26.50;94.90
8892;DHT22;4482;54.332;10.118;2023-09-08T15:24:15;26.40;95.20
8892;DHT22;4482;54.332;10.118;2023-09-08T15:26:42;26.50;95.10
8892;DHT22;4482;54.332;10.118;2023-09-08T15:29:10;26.50;95.00
8892;DHT22;4482;54.332;10.118;2023-09-08T15:31:37;26.50;94.10
8892;DHT22;4482;54.332;10.118;2023-09-08T15:34:04;26.50;94.20
8892;DHT22;4482;54.332;10.118;2023-09-08T15:36:33;26.40;94.00
8892;DHT22;4482;54.332;10.118;2023-09-08T15:39:03;26.40;93.90
8892;DHT22;4482;54.332;10.118;2023-09-08T15:41:32;26.40;94.60
8892;DHT22;4482;54.332;10.118;2023-09-08T15:44:01;26.30;94.90
8892;DHT22;4482;54.332;10.118;2023-09-08T15:46:28;26.20;94.80